createdAt,value
2023-05-03T00:02:54.157Z,15.50
2023-05-03T00:05:57.285Z,13.70
2023-05-03T00:09:00.542Z,14.00
2023-05-03T00:12:06.003Z,14.70
2023-05-03T00:15:10.542Z,14.10
2023-05-03T00:18:13.556Z,14.00
2023-05-03T00:21:16.704Z,16.20
2023-05-03T00:24:19.746Z,16.20
2023-05-03T00:27:24.324Z,15.70
2023-05-03T00:30:27.488Z,17.20
2023-05-03T00:33:30.684Z,15.40
2023-05-03T00:36:35.747Z,14.80
2023-05-03T00:39:40.280Z,16.10
2023-05-03T00:42:43.290Z,14.90
2023-05-03T00:45:47.606Z,12.20
2023-05-03T00:48:51.450Z,16.90
2023-05-03T00:51:54.756Z,15.10
2023-05-03T00:54:58.020Z,14.00
2023-05-03T00:58:01.229Z,14.50
2023-05-03T01:01:04.301Z,14.20
2023-05-03T01:04:07.513Z,15.10
2023-05-03T01:07:19.250Z,14.50
2023-05-03T01:10:42.176Z,19.20
2023-05-03T01:14:06.321Z,22.90
2023-05-03T01:17:12.700Z,16.90
2023-05-03T01:20:24.888Z,19.60
2023-05-03T01:23:32.903Z,18.90
2023-05-03T01:26:37.274Z,20.40
2023-05-03T01:29:40.498Z,20.00
2023-05-03T01:33:03.097Z,20.70
2023-05-03T01:36:16.384Z,19.20
2023-05-03T01:39:52.953Z,20.40
2023-05-03T01:42:57.147Z,19.40
2023-05-03T01:46:00.446Z,21.40
2023-05-03T01:49:03.643Z,22.70
2023-05-03T01:52:06.747Z,21.40
2023-05-03T01:55:09.855Z,20.90
2023-05-03T01:58:12.963Z,19.80
2023-05-03T02:01:16.016Z,19.00
2023-05-03T02:04:19.034Z,19.40
2023-05-03T02:07:22.006Z,20.80
2023-05-03T02:10:25.432Z,19.60
2023-05-03T02:13:31.818Z,19.30
2023-05-03T02:16:34.891Z,16.10
2023-05-03T02:19:37.940Z,20.60
2023-05-03T02:22:41.053Z,19.30
2023-05-03T02:25:44.094Z,20.40
2023-05-03T02:28:47.084Z,19.60
2023-05-03T02:31:50.042Z,23.60
2023-05-03T02:34:54.055Z,22.30
2023-05-03T02:37:57.521Z,22.40
2023-05-03T02:41:00.696Z,20.10
2023-05-03T02:44:03.871Z,18.70
2023-05-03T02:47:07.521Z,18.90
2023-05-03T02:50:12.275Z,18.60
2023-05-03T02:53:15.800Z,17.00
2023-05-03T02:56:18.941Z,22.40
2023-05-03T02:59:21.959Z,20.10
2023-05-03T03:02:25.149Z,23.40
2023-05-03T03:05:28.144Z,26.30
2023-05-03T03:08:31.258Z,23.90
2023-05-03T03:11:35.348Z,21.10
2023-05-03T03:14:38.631Z,20.60
2023-05-03T03:17:41.806Z,19.90
2023-05-03T03:20:45.425Z,18.80
2023-05-03T03:23:49.065Z,17.50
2023-05-03T03:26:52.110Z,15.60
2023-05-03T03:29:55.451Z,20.30
2023-05-03T03:32:58.479Z,17.20
2023-05-03T03:36:07.803Z,15.90
2023-05-03T03:39:11.578Z,17.00
2023-05-03T03:42:19.122Z,16.40
2023-05-03T03:45:23.779Z,17.10
2023-05-03T03:48:26.937Z,15.50
2023-05-03T03:51:30.123Z,17.50
2023-05-03T03:54:35.818Z,15.50
2023-05-03T03:57:39.222Z,14.90
2023-05-03T04:00:42.850Z,14.50
2023-05-03T04:03:48.181Z,16.40
2023-05-03T04:06:51.713Z,14.70
2023-05-03T04:09:56.670Z,14.20
2023-05-03T04:13:00.839Z,14.50
2023-05-03T04:16:06.351Z,15.10
2023-05-03T04:19:09.979Z,15.60
2023-05-03T04:22:14.536Z,17.10
2023-05-03T04:25:18.303Z,14.60
2023-05-03T04:28:27.210Z,17.30
2023-05-03T04:31:30.872Z,14.20
2023-05-03T04:34:34.099Z,14.40
2023-05-03T04:37:40.137Z,15.20
2023-05-03T04:40:43.486Z,12.20
2023-05-03T04:43:46.687Z,13.80
2023-05-03T04:46:51.144Z,13.10
2023-05-03T04:49:54.597Z,13.20
2023-05-03T04:52:58.345Z,14.00
2023-05-03T04:56:01.615Z,13.50
2023-05-03T04:59:05.694Z,13.50
2023-05-03T05:02:08.981Z,12.80
2023-05-03T05:05:12.244Z,12.00
2023-05-03T05:08:16.102Z,12.30
2023-05-03T05:11:24.182Z,15.60
2023-05-03T05:14:30.554Z,16.00
2023-05-03T05:17:34.024Z,11.90
2023-05-03T05:20:37.667Z,15.70
2023-05-03T05:23:40.975Z,13.10
2023-05-03T05:26:44.502Z,10.30
2023-05-03T05:29:48.483Z,12.00
2023-05-03T05:32:51.589Z,12.00
2023-05-03T05:35:55.678Z,13.30
2023-05-03T05:38:59.104Z,14.80
2023-05-03T05:42:02.887Z,21.90
2023-05-03T05:45:08.141Z,19.00
2023-05-03T05:48:11.606Z,13.30
2023-05-03T05:51:14.884Z,12.40
2023-05-03T05:54:18.123Z,11.60
2023-05-03T05:57:21.536Z,12.70
2023-05-03T06:00:25.212Z,12.20
2023-05-03T06:03:28.404Z,10.00
2023-05-03T06:06:31.725Z,9.10
2023-05-03T06:09:34.883Z,10.20
2023-05-03T06:12:39.561Z,9.00
2023-05-03T06:15:47.127Z,12.30
2023-05-03T06:18:50.798Z,13.00
2023-05-03T06:21:53.900Z,12.10
2023-05-03T06:24:57.975Z,12.50
2023-05-03T06:28:01.336Z,8.40
2023-05-03T06:31:07.324Z,10.30
2023-05-03T06:34:10.623Z,10.50
2023-05-03T06:37:15.454Z,7.40
2023-05-03T06:40:18.801Z,10.10
2023-05-03T06:43:22.313Z,12.60
2023-05-03T06:46:29.088Z,8.50
2023-05-03T06:49:32.749Z,10.40
2023-05-03T06:52:35.858Z,10.60
2023-05-03T06:55:38.899Z,9.60
2023-05-03T06:58:41.827Z,9.70
2023-05-03T07:01:44.893Z,9.10
2023-05-03T07:04:47.964Z,10.30
2023-05-03T07:07:51.126Z,11.40
2023-05-03T07:10:54.219Z,10.80
2023-05-03T07:13:57.260Z,10.40
2023-05-03T07:17:00.375Z,10.30
2023-05-03T07:20:04.567Z,9.50
2023-05-03T07:23:07.777Z,10.60
2023-05-03T07:26:10.879Z,13.40
2023-05-03T07:29:14.461Z,12.70
2023-05-03T07:32:17.939Z,12.70
2023-05-03T07:35:21.149Z,9.80
2023-05-03T07:38:24.131Z,12.80
2023-05-03T07:41:27.380Z,9.10
2023-05-03T07:44:31.121Z,9.20
2023-05-03T07:47:37.838Z,9.60
2023-05-03T07:50:44.627Z,10.70
2023-05-03T07:53:48.555Z,11.90
2023-05-03T07:56:52.381Z,11.00
2023-05-03T07:59:56.628Z,10.00
2023-05-03T08:03:01.612Z,10.70
2023-05-03T08:06:05.780Z,10.00
2023-05-03T08:09:09.340Z,13.50
2023-05-03T08:12:12.540Z,9.70
2023-05-03T08:15:15.580Z,9.10
2023-05-03T08:18:19.242Z,13.30
2023-05-03T08:21:24.866Z,13.20
2023-05-03T08:24:28.103Z,11.00
2023-05-03T08:27:31.703Z,10.90
2023-05-03T08:30:37.273Z,8.50
2023-05-03T08:33:40.430Z,8.40
2023-05-03T08:36:43.470Z,8.00
2023-05-03T08:39:47.561Z,8.80
2023-05-03T08:42:50.702Z,10.00
2023-05-03T08:45:53.784Z,9.20
2023-05-03T08:48:58.861Z,10.70
2023-05-03T08:52:02.411Z,10.30
2023-05-03T08:55:05.656Z,10.80
2023-05-03T08:58:12.964Z,9.20
2023-05-03T09:01:16.641Z,10.40
2023-05-03T09:04:19.756Z,9.50
2023-05-03T09:07:22.974Z,13.00
2023-05-03T09:10:26.223Z,13.80
2023-05-03T09:13:33.072Z,14.50
2023-05-03T09:16:36.228Z,10.30
2023-05-03T09:19:56.373Z,15.50
2023-05-03T09:22:59.549Z,12.30
2023-05-03T09:26:02.652Z,15.80
2023-05-03T09:29:05.752Z,11.80
2023-05-03T09:32:09.106Z,11.50
2023-05-03T09:35:13.777Z,13.60
2023-05-03T09:38:33.746Z,8.90
2023-05-03T09:41:36.861Z,12.10
2023-05-03T09:44:53.906Z,26.00
2023-05-03T09:47:57.809Z,11.60
2023-05-03T09:51:00.807Z,9.10
2023-05-03T09:54:04.541Z,9.60
2023-05-03T09:57:08.673Z,10.40
2023-05-03T10:00:14.513Z,7.50
2023-05-03T10:03:47.637Z,9.50
2023-05-03T10:06:51.656Z,8.50
2023-05-03T10:09:57.157Z,7.70
2023-05-03T10:13:03.181Z,7.40
2023-05-03T10:16:11.887Z,8.40
2023-05-03T10:19:21.756Z,5.80
2023-05-03T10:22:24.949Z,5.10
2023-05-03T10:25:27.910Z,7.80
2023-05-03T10:28:33.775Z,7.50
2023-05-03T10:31:48.265Z,8.00
2023-05-03T10:34:58.432Z,8.50
2023-05-03T10:38:16.816Z,15.00
2023-05-03T10:41:27.274Z,9.00
2023-05-03T10:44:54.309Z,9.10
2023-05-03T10:48:12.651Z,13.30
2023-05-03T10:51:38.894Z,13.00
2023-05-03T10:54:41.978Z,11.30
2023-05-03T10:57:46.907Z,8.30
2023-05-03T11:00:51.492Z,6.20
2023-05-03T11:04:03.897Z,7.20
2023-05-03T11:07:07.138Z,7.00
2023-05-03T11:10:17.797Z,14.80
2023-05-03T11:13:20.897Z,6.40
2023-05-03T11:16:24.507Z,8.50
2023-05-03T11:19:28.888Z,8.80
2023-05-03T11:22:32.678Z,9.00
2023-05-03T11:25:35.746Z,8.10
2023-05-03T11:28:43.236Z,8.40
2023-05-03T11:31:46.488Z,13.50
2023-05-03T11:34:49.540Z,16.20
2023-05-03T11:37:54.130Z,14.80
2023-05-03T11:40:57.636Z,10.30
2023-05-03T11:44:15.143Z,9.40
2023-05-03T11:47:21.887Z,9.60
2023-05-03T11:50:55.795Z,9.90
2023-05-03T11:54:13.031Z,7.40
2023-05-03T11:57:25.908Z,8.40
2023-05-03T12:00:30.125Z,11.70
2023-05-03T12:03:33.887Z,10.40
2023-05-03T12:06:38.455Z,11.20
2023-05-03T12:09:44.805Z,8.90
2023-05-03T12:13:02.189Z,7.20
2023-05-03T12:16:12.712Z,8.80
2023-05-03T12:19:30.907Z,9.50
2023-05-03T12:22:35.131Z,5.30
2023-05-03T12:25:39.548Z,7.80
2023-05-03T12:28:43.508Z,7.70
2023-05-03T12:31:49.186Z,8.00
2023-05-03T12:34:57.059Z,5.60
2023-05-03T12:38:03.053Z,7.70
2023-05-03T12:41:08.967Z,5.80
2023-05-03T12:44:13.305Z,5.60
2023-05-03T12:47:27.932Z,6.70
2023-05-03T12:50:32.622Z,7.80
2023-05-03T12:53:39.181Z,6.60
2023-05-03T12:56:47.568Z,5.00
2023-05-03T12:59:58.603Z,5.30
2023-05-03T13:06:13.983Z,5.00
2023-05-03T13:09:21.625Z,2.60
2023-05-03T13:12:27.408Z,8.00
2023-05-03T13:15:30.537Z,4.40
2023-05-03T13:18:33.536Z,4.70
2023-05-03T13:21:36.547Z,5.50
2023-05-03T13:24:41.296Z,7.90
2023-05-03T13:27:46.858Z,3.90
2023-05-03T13:30:49.943Z,7.20
2023-05-03T13:33:56.961Z,8.40
2023-05-03T13:37:01.513Z,4.40
2023-05-03T13:40:05.523Z,4.40
2023-05-03T13:43:08.659Z,5.20
2023-05-03T13:46:12.635Z,4.30
2023-05-03T13:49:15.993Z,4.20
2023-05-03T13:52:19.030Z,3.90
2023-05-03T13:55:22.740Z,5.40
2023-05-03T13:58:26.198Z,5.90
2023-05-03T14:01:29.584Z,5.40
2023-05-03T14:04:32.671Z,4.90
2023-05-03T14:07:35.772Z,6.40
2023-05-03T14:10:39.441Z,5.20
2023-05-03T14:13:55.393Z,4.00
2023-05-03T14:16:59.839Z,9.10
2023-05-03T14:20:06.964Z,8.90
2023-05-03T14:23:10.322Z,3.90
2023-05-03T14:26:14.201Z,2.90
2023-05-03T14:29:17.618Z,6.30
2023-05-03T14:32:23.293Z,12.70
2023-05-03T14:35:26.889Z,5.80
2023-05-03T14:38:30.063Z,5.00
2023-05-03T14:41:33.445Z,6.10
2023-05-03T14:44:37.111Z,4.00
2023-05-03T14:47:44.016Z,5.30
2023-05-03T14:50:51.569Z,5.40
2023-05-03T14:53:55.200Z,5.80
2023-05-03T14:56:58.516Z,5.10
2023-05-03T15:00:03.068Z,6.30
2023-05-03T15:03:08.471Z,3.60
2023-05-03T15:06:11.701Z,4.90
2023-05-03T15:09:15.186Z,5.40
2023-05-03T15:12:18.372Z,6.00
2023-05-03T15:15:21.808Z,3.60
2023-05-03T15:18:27.586Z,3.80
2023-05-03T15:21:30.889Z,5.40
2023-05-03T15:24:34.227Z,3.60
2023-05-03T15:27:37.305Z,5.40
2023-05-03T15:30:40.295Z,3.30
2023-05-03T15:33:44.662Z,5.70
2023-05-03T15:36:47.686Z,6.50
2023-05-03T15:39:50.859Z,6.70
2023-05-03T15:42:54.119Z,7.60
2023-05-03T15:45:57.434Z,5.50
2023-05-03T15:49:01.328Z,7.30
2023-05-03T15:52:04.915Z,5.40
2023-05-03T15:55:09.538Z,4.10
2023-05-03T15:58:12.767Z,6.00
2023-05-03T16:01:16.311Z,5.80
2023-05-03T16:04:19.296Z,4.50
2023-05-03T16:07:22.286Z,5.40
2023-05-03T16:10:26.545Z,6.60
2023-05-03T16:13:30.145Z,5.00
2023-05-03T16:16:33.250Z,4.90
2023-05-03T16:19:37.629Z,6.30
2023-05-03T16:22:40.730Z,5.00
2023-05-03T16:25:43.775Z,6.80
2023-05-03T16:28:48.154Z,6.50
2023-05-03T16:31:53.021Z,4.50
2023-05-03T16:34:56.868Z,8.30
2023-05-03T16:38:00.671Z,5.30
2023-05-03T16:41:03.713Z,14.00
2023-05-03T16:44:08.489Z,7.20
2023-05-03T16:47:11.596Z,5.30
2023-05-03T16:50:17.704Z,6.00
2023-05-03T16:53:22.127Z,4.90
2023-05-03T16:56:26.413Z,6.80
2023-05-03T16:59:29.621Z,5.90
2023-05-03T17:02:32.791Z,4.10
2023-05-03T17:05:36.015Z,4.10
2023-05-03T17:08:39.883Z,4.90
2023-05-03T17:11:42.977Z,3.90
2023-05-03T17:14:46.043Z,3.30
2023-05-03T17:17:49.116Z,5.40
2023-05-03T17:20:52.794Z,5.90
2023-05-03T17:23:55.775Z,5.40
2023-05-03T17:26:58.952Z,5.90
2023-05-03T17:30:03.568Z,3.70
2023-05-03T17:33:06.725Z,4.10
2023-05-03T17:36:09.750Z,4.90
2023-05-03T17:39:13.098Z,6.70
2023-05-03T17:42:16.339Z,4.20
2023-05-03T17:45:19.511Z,4.00
2023-05-03T17:48:22.709Z,4.60
2023-05-03T17:51:25.820Z,3.30
2023-05-03T17:54:29.537Z,5.30
2023-05-03T17:57:32.729Z,7.40
2023-05-03T18:00:35.819Z,4.20
2023-05-03T18:03:39.157Z,4.40
2023-05-03T18:06:42.161Z,4.10
2023-05-03T18:09:45.728Z,6.60
2023-05-03T18:12:48.734Z,4.50
2023-05-03T18:15:51.784Z,3.60
2023-05-03T18:18:54.941Z,5.20
2023-05-03T18:21:58.257Z,4.10
2023-05-03T18:25:03.209Z,5.10
2023-05-03T18:28:06.354Z,4.50
2023-05-03T18:31:11.419Z,4.30
2023-05-03T18:34:14.576Z,5.80
2023-05-03T18:37:17.912Z,5.60
2023-05-03T18:40:21.159Z,4.80
2023-05-03T18:43:24.846Z,7.90
2023-05-03T18:46:27.987Z,9.10
2023-05-03T18:49:31.093Z,8.40
2023-05-03T18:52:34.058Z,8.70
2023-05-03T18:55:37.397Z,10.70
2023-05-03T18:58:40.404Z,9.90
2023-05-03T19:01:43.362Z,9.80
2023-05-03T19:04:46.548Z,13.90
2023-05-03T19:07:49.667Z,16.00
2023-05-03T19:10:52.667Z,18.50
2023-05-03T19:13:55.719Z,16.60
2023-05-03T19:16:58.769Z,14.00
2023-05-03T19:20:02.090Z,16.50
2023-05-03T19:23:05.514Z,14.50
2023-05-03T19:26:08.588Z,13.10
2023-05-03T19:29:11.546Z,11.80
2023-05-03T19:32:14.655Z,10.40
2023-05-03T19:35:17.813Z,11.40
2023-05-03T19:38:20.929Z,12.50
2023-05-03T19:41:26.108Z,14.10
2023-05-03T19:44:33.380Z,13.80
2023-05-03T19:47:36.416Z,15.50
2023-05-03T19:50:39.382Z,15.70
2023-05-03T19:53:42.656Z,16.40
2023-05-03T19:56:45.800Z,15.80
2023-05-03T19:59:48.975Z,16.40
2023-05-03T20:02:52.115Z,17.00
2023-05-03T20:05:55.280Z,17.60
2023-05-03T20:08:58.345Z,18.20
2023-05-03T20:12:02.291Z,16.60
2023-05-03T20:15:06.514Z,16.40
2023-05-03T20:18:09.880Z,16.90
2023-05-03T20:21:13.911Z,15.10
2023-05-03T20:24:16.938Z,16.80
2023-05-03T20:27:19.894Z,19.10
2023-05-03T20:30:23.085Z,17.90
2023-05-03T20:33:26.491Z,22.40
2023-05-03T20:36:29.582Z,16.60
2023-05-03T20:39:34.126Z,21.70
2023-05-03T20:42:37.241Z,23.20
2023-05-03T20:45:40.320Z,18.30
2023-05-03T20:48:43.468Z,20.80
2023-05-03T20:51:47.485Z,21.60
2023-05-03T20:54:50.507Z,20.30
2023-05-03T20:57:53.537Z,24.60
2023-05-03T21:00:57.829Z,24.30
2023-05-03T21:04:02.933Z,27.80
2023-05-03T21:07:05.987Z,24.70
2023-05-03T21:10:09.548Z,28.30
2023-05-03T21:13:12.570Z,28.80
2023-05-03T21:16:15.776Z,26.10
2023-05-03T21:19:18.783Z,26.50
2023-05-03T21:22:21.888Z,26.20
2023-05-03T21:25:24.906Z,27.30
2023-05-03T21:28:30.224Z,25.10
2023-05-03T21:31:33.381Z,25.50
2023-05-03T21:34:36.448Z,25.30
2023-05-03T21:37:39.630Z,24.30
2023-05-03T21:40:42.630Z,23.50
2023-05-03T21:43:45.693Z,26.60
2023-05-03T21:46:48.748Z,30.10
2023-05-03T21:49:51.754Z,28.60
2023-05-03T21:52:54.714Z,25.30
2023-05-03T21:55:57.680Z,26.40
2023-05-03T21:59:00.656Z,24.50
2023-05-03T22:02:05.676Z,25.10
2023-05-03T22:05:09.306Z,29.10
2023-05-03T22:08:14.328Z,28.20
2023-05-03T22:11:17.672Z,25.40
2023-05-03T22:14:20.919Z,26.90
2023-05-03T22:17:24.895Z,28.40
2023-05-03T22:20:29.956Z,23.40
2023-05-03T22:23:33.147Z,24.00
2023-05-03T22:26:36.262Z,21.00
2023-05-03T22:29:39.333Z,21.30
2023-05-03T22:32:42.567Z,25.50
2023-05-03T22:35:46.006Z,23.50
2023-05-03T22:38:49.192Z,20.70
2023-05-03T22:41:52.146Z,20.10
2023-05-03T22:44:56.951Z,18.70
2023-05-03T22:48:00.523Z,17.70
2023-05-03T22:51:03.719Z,18.90
2023-05-03T22:54:06.683Z,15.60
2023-05-03T22:57:10.205Z,15.10
2023-05-03T23:00:13.650Z,15.90
2023-05-03T23:03:17.086Z,15.60
2023-05-03T23:06:20.114Z,14.10
2023-05-03T23:09:23.112Z,12.80
2023-05-03T23:12:26.101Z,12.30
2023-05-03T23:15:29.609Z,14.80
2023-05-03T23:18:32.754Z,14.00
2023-05-03T23:21:35.780Z,12.00
2023-05-03T23:24:39.674Z,13.00
2023-05-03T23:27:43.471Z,14.00
2023-05-03T23:30:46.736Z,13.80
2023-05-03T23:33:50.159Z,13.50
2023-05-03T23:36:53.292Z,12.60
2023-05-03T23:39:56.367Z,13.50
2023-05-03T23:42:59.391Z,15.20
2023-05-03T23:46:02.383Z,15.60
2023-05-03T23:49:05.737Z,13.90
2023-05-03T23:52:09.835Z,15.40
2023-05-03T23:55:12.816Z,14.10
2023-05-03T23:58:15.836Z,14.10
